Time;durP1;ratioP1;P1;durP2;ratioP2;P2;SDS_P1;SDS_P2;PMS_P1;PMS_P2;Temp;Humidity;BMP_temperature;BMP_pressure;BME280_temperature;BME280_humidity;BME280_pressure;Samples;Min_cycle;Max_cycle;Signal;HPM_P1;HPM_P2
2020/12/04 00:04:48;;;;;;;5.25;3.50;;;20.20;57.20;;;;;;15753540;28;20458;-60
2020/12/04 00:12:18;;;;;;;5.75;3.55;;;20.20;57.20;;;;;;15753220;28;20039;-61
2020/12/04 00:19:49;;;;;;;8.40;5.60;;;20.10;57.50;;;;;;15752666;28;20027;-60
2020/12/04 00:27:19;;;;;;;8.02;5.20;;;20.20;57.40;;;;;;15752280;28;20024;-60
2020/12/04 00:34:50;;;;;;;8.07;4.10;;;20.20;57.10;;;;;;15751535;28;20123;-60
2020/12/04 00:42:20;;;;;;;6.37;4.40;;;20.20;56.90;;;;;;15751362;28;20029;-60
2020/12/04 00:49:51;;;;;;;6.23;3.83;;;20.20;56.70;;;;;;15750856;28;20036;-60
2020/12/04 00:57:21;;;;;;;6.15;3.50;;;20.30;56.80;;;;;;15750080;28;20106;-60
2020/12/04 01:04:52;;;;;;;5.27;3.27;;;20.20;56.90;;;;;;15749601;28;20036;-60
2020/12/04 01:12:22;;;;;;;4.93;3.37;;;20.20;56.90;;;;;;15749478;28;20033;-60
2020/12/04 01:19:53;;;;;;;7.05;3.88;;;20.20;57.20;;;;;;15748901;28;20032;-60
2020/12/04 01:27:24;;;;;;;7.03;4.55;;;20.20;57.70;;;;;;15748570;28;20111;-60
2020/12/04 01:34:54;;;;;;;5.85;3.58;;;20.20;58.10;;;;;;15748109;28;20489;-60
2020/12/04 01:42:25;;;;;;;7.53;3.80;;;20.20;57.90;;;;;;15747764;28;20095;-60
2020/12/04 01:49:56;;;;;;;7.37;4.43;;;20.20;57.10;;;;;;15747634;28;20025;-60
2020/12/04 01:57:32;;;;;;;6.30;3.50;;;20.20;56.80;;;;;;15747195;28;20459;-60
2020/12/04 02:05:03;;;;;;;5.25;3.47;;;20.20;56.80;;;;;;15748075;28;20032;-60
2020/12/04 02:12:35;;;;;;;6.40;3.78;;;20.20;57.10;;;;;;15746687;28;20082;-60
2020/12/04 02:20:06;;;;;;;5.45;3.47;;;20.20;58.30;;;;;;15746697;28;20498;-60
2020/12/04 02:27:50;;;;;;;4.95;3.28;;;20.30;57.80;;;;;;15728444;28;20052;-60
2020/12/04 04:07:25;;;;;;;4.05;2.38;;;20.30;58.40;;;;;;15890552;23;20053;-61
2020/12/04 04:14:55;;;;;;;4.27;2.47;;;20.30;58.00;;;;;;15629609;28;20041;-61
2020/12/04 04:22:26;;;;;;;4.30;2.83;;;20.30;57.90;;;;;;15628946;28;20037;-61
2020/12/04 04:29:56;;;;;;;3.90;2.30;;;20.30;58.20;;;;;;15629480;28;20033;-61
2020/12/04 04:37:27;;;;;;;4.18;2.75;;;20.30;58.10;;;;;;15628184;28;20123;-61
2020/12/04 04:45:02;;;;;;;4.20;2.60;;;20.20;58.20;;;;;;15627995;28;20610;-61
2020/12/04 04:52:34;;;;;;;5.07;2.87;;;20.20;58.10;;;;;;15609534;28;20029;-61
2020/12/04 05:00:05;;;;;;;3.67;2.40;;;20.20;59.10;;;;;;15626936;28;20109;-61
2020/12/04 05:07:35;;;;;;;4.22;2.42;;;20.20;58.20;;;;;;15626490;28;20049;-61
2020/12/04 05:15:22;;;;;;;5.73;2.77;;;20.30;57.80;;;;;;15625556;28;20064;-61
2020/12/04 05:22:58;;;;;;;3.85;2.20;;;20.40;57.50;;;;;;15626707;28;20021;-61
2020/12/04 05:30:28;;;;;;;2.75;2.03;;;20.40;57.40;;;;;;15625510;28;20033;-61
2020/12/04 05:38:11;;;;;;;3.80;2.40;;;20.50;57.10;;;;;;15607176;28;20116;-61
2020/12/04 05:45:42;;;;;;;3.88;2.47;;;20.50;57.20;;;;;;15625467;28;20033;-61
2020/12/04 05:53:12;;;;;;;5.95;2.35;;;20.50;57.80;;;;;;15624494;28;20022;-62
2020/12/04 06:00:43;;;;;;;4.07;2.10;;;20.50;58.80;;;;;;15623662;28;20075;-60
2020/12/04 06:08:14;;;;;;;4.60;2.30;;;20.50;58.50;;;;;;15624466;28;20060;-60
2020/12/04 06:15:44;;;;;;;6.22;2.60;;;20.50;58.50;;;;;;15622934;28;20044;-61
2020/12/04 06:23:16;;;;;;;4.93;1.83;;;20.50;59.40;;;;;;15624636;28;20029;-60
2020/12/04 06:31:01;;;;;;;2.50;1.10;;;20.40;58.70;;;;;;15614589;28;20036;-60
2020/12/04 06:38:35;;;;;;;3.38;1.67;;;20.40;58.30;;;;;;15636035;28;20021;-59
2020/12/04 06:46:05;;;;;;;4.40;1.60;;;20.40;58.60;;;;;;15635255;28;20034;-58
2020/12/04 06:53:36;;;;;;;8.90;2.20;;;20.50;58.90;;;;;;15634968;28;20029;-58
2020/12/04 07:01:07;;;;;;;7.40;2.58;;;20.50;59.60;;;;;;15634290;28;20042;-59
2020/12/04 07:08:58;;;;;;;11.60;3.45;;;20.60;59.30;;;;;;15633229;28;20030;-59
2020/12/04 07:16:29;;;;;;;13.45;3.45;;;20.70;58.80;;;;;;15615981;28;20053;-58
2020/12/04 07:23:59;;;;;;;12.45;3.95;;;20.80;58.50;;;;;;15633156;28;20396;-59
2020/12/04 07:31:30;;;;;;;13.50;3.77;;;20.80;58.30;;;;;;15631794;28;20573;-59
2020/12/04 07:39:02;;;;;;;8.80;2.40;;;20.70;59.00;;;;;;15630976;28;20104;-58
2020/12/04 07:46:35;;;;;;;10.00;3.08;;;20.80;58.80;;;;;;15631279;28;20912;-59
2020/12/04 07:54:18;;;;;;;10.48;2.83;;;20.80;58.90;;;;;;15631420;28;20037;-58
2020/12/04 08:01:48;;;;;;;7.32;2.60;;;20.80;58.80;;;;;;15630760;28;20044;-58
2020/12/04 08:09:19;;;;;;;8.48;2.70;;;20.80;58.40;;;;;;15630798;28;20033;-58
2020/12/04 08:16:54;;;;;;;8.15;2.22;;;20.80;58.10;;;;;;15630408;28;20100;-58
2020/12/04 08:24:37;;;;;;;8.57;2.87;;;20.80;58.10;;;;;;15630133;28;20104;-58
2020/12/04 08:32:13;;;;;;;5.85;1.98;;;20.90;58.00;;;;;;15628531;28;20033;-58
2020/12/04 08:39:44;;;;;;;5.55;2.08;;;20.90;58.00;;;;;;15629399;28;20053;-59
2020/12/04 08:47:31;;;;;;;7.00;2.15;;;20.90;58.30;;;;;;15628188;28;20392;-58
2020/12/04 08:55:06;;;;;;;5.18;1.95;;;20.90;58.40;;;;;;15627249;28;20395;-59
2020/12/04 09:02:38;;;;;;;5.85;1.77;;;21.00;58.40;;;;;;15626800;28;20045;-59
2020/12/04 09:10:12;;;;;;;5.63;2.35;;;20.90;58.30;;;;;;15627433;28;20033;-59
2020/12/04 09:17:43;;;;;;;5.88;2.17;;;20.90;58.00;;;;;;15608529;28;20049;-58
2020/12/04 09:25:15;;;;;;;7.30;2.67;;;20.90;58.40;;;;;;15609249;28;20032;-58
2020/12/04 09:32:47;;;;;;;3.03;1.58;;;20.90;58.60;;;;;;15625909;28;20017;-58
2020/12/04 09:40:19;;;;;;;3.70;1.70;;;20.80;58.90;;;;;;15625598;28;20018;-58
2020/12/04 09:47:49;;;;;;;5.00;1.83;;;20.90;59.00;;;;;;15631324;28;20033;-58
2020/12/04 09:55:20;;;;;;;5.40;2.10;;;20.90;59.10;;;;;;15633009;28;20373;-58
2020/12/04 10:02:50;;;;;;;3.60;1.70;;;20.90;58.90;;;;;;15625962;28;20521;-57
2020/12/04 10:10:21;;;;;;;4.00;2.07;;;20.90;58.70;;;;;;15628565;28;20025;-58
2020/12/04 10:17:51;;;;;;;4.93;1.70;;;21.00;58.50;;;;;;15629925;28;20033;-58
2020/12/04 10:25:22;;;;;;;7.23;2.20;;;21.00;58.50;;;;;;15625404;28;20510;-58
2020/12/04 10:32:52;;;;;;;5.30;1.80;;;20.90;58.60;;;;;;15624456;28;20460;-58
2020/12/04 10:40:23;;;;;;;10.50;3.63;;;21.00;59.00;;;;;;15623071;28;20038;-58
2020/12/04 10:47:53;;;;;;;4.65;2.90;;;20.80;57.00;;;;;;15623202;28;20449;-58
2020/12/04 10:55:24;;;;;;;6.43;3.03;;;20.80;56.40;;;;;;15623187;28;20021;-58
2020/12/04 11:03:03;;;;;;;5.23;2.50;;;20.70;56.70;;;;;;15621941;28;20808;-58
2020/12/04 11:10:34;;;;;;;4.43;2.38;;;20.80;56.90;;;;;;15622718;28;20079;-58
2020/12/04 11:18:05;;;;;;;3.08;1.77;;;20.70;56.90;;;;;;15632349;28;20029;-58
2020/12/04 11:25:35;;;;;;;3.05;1.40;;;20.60;56.80;;;;;;15635022;28;20061;-58
2020/12/04 11:33:06;;;;;;;3.78;1.80;;;20.60;56.90;;;;;;15634438;28;20084;-58
2020/12/04 11:40:36;;;;;;;2.27;1.30;;;20.50;57.00;;;;;;15635219;28;20056;-58
2020/12/04 11:48:07;;;;;;;4.53;1.98;;;20.50;57.10;;;;;;15645475;28;20045;-58
2020/12/04 11:55:37;;;;;;;3.47;1.53;;;20.50;57.50;;;;;;15671406;28;20064;-58
2020/12/04 12:03:09;;;;;;;3.67;1.47;;;20.60;57.60;;;;;;15668291;28;20415;-58
2020/12/04 12:10:39;;;;;;;3.20;1.75;;;20.70;57.40;;;;;;15668555;28;20389;-58
2020/12/04 12:18:10;;;;;;;4.83;1.87;;;20.80;57.40;;;;;;15666586;28;20044;-58
2020/12/04 12:25:40;;;;;;;2.40;1.43;;;20.80;57.90;;;;;;15667337;28;20463;-58
2020/12/04 12:33:11;;;;;;;3.85;1.50;;;20.80;57.30;;;;;;15667479;28;20472;-58
2020/12/04 12:40:41;;;;;;;3.03;1.30;;;20.80;57.30;;;;;;15657697;28;20111;-58
2020/12/04 12:48:12;;;;;;;2.43;1.27;;;20.80;57.40;;;;;;15629394;28;20436;-58
2020/12/04 12:55:42;;;;;;;4.15;1.50;;;20.80;57.40;;;;;;15629776;28;20112;-58
2020/12/04 13:03:13;;;;;;;2.50;1.33;;;20.90;57.30;;;;;;15629234;28;20052;-58
2020/12/04 13:10:47;;;;;;;2.10;1.27;;;20.90;57.20;;;;;;15629307;28;20021;-58
2020/12/04 13:18:18;;;;;;;1.90;1.27;;;20.90;57.20;;;;;;15627459;28;20530;-58
2020/12/04 13:25:48;;;;;;;2.17;1.30;;;20.90;57.30;;;;;;15628100;28;20033;-57
2020/12/04 13:33:19;;;;;;;2.05;1.20;;;20.80;57.50;;;;;;15627182;28;20076;-58
2020/12/04 13:40:49;;;;;;;2.70;1.53;;;20.80;57.60;;;;;;15624618;28;20026;-58
2020/12/04 13:48:20;;;;;;;3.05;1.30;;;20.80;58.60;;;;;;15624702;28;20083;-59
2020/12/04 13:55:51;;;;;;;2.17;1.37;;;20.80;58.80;;;;;;15624014;28;20036;-58
2020/12/04 14:03:22;;;;;;;2.90;1.45;;;20.80;58.90;;;;;;15624515;28;20033;-59
2020/12/04 14:10:52;;;;;;;2.42;1.50;;;20.90;60.30;;;;;;15624984;28;20057;-58
2020/12/04 14:18:23;;;;;;;3.93;1.40;;;20.90;60.70;;;;;;15624993;28;20026;-58
2020/12/04 14:25:53;;;;;;;3.27;1.40;;;21.00;60.10;;;;;;15624626;28;20448;-58
2020/12/04 14:33:24;;;;;;;4.60;1.50;;;21.00;59.90;;;;;;15624258;28;20033;-58
2020/12/04 14:40:55;;;;;;;3.22;1.90;;;21.00;60.20;;;;;;15624120;28;20030;-58
2020/12/04 14:48:25;;;;;;;8.93;3.50;;;21.10;61.40;;;;;;15625034;28;20030;-58
2020/12/04 14:55:56;;;;;;;5.17;1.60;;;21.10;64.10;;;;;;15634316;28;20072;-56
2020/12/04 15:03:28;;;;;;;5.03;1.70;;;21.10;61.50;;;;;;15633981;28;20607;-58
2020/12/04 15:10:59;;;;;;;3.55;1.88;;;21.20;60.10;;;;;;15633373;28;20061;-58
2020/12/04 15:18:31;;;;;;;4.03;2.05;;;21.30;59.80;;;;;;15633133;28;20026;-58
2020/12/04 15:26:03;;;;;;;6.20;2.30;;;21.30;59.50;;;;;;15633680;28;20029;-58
2020/12/04 15:33:34;;;;;;;7.72;2.67;;;21.20;59.40;;;;;;15632796;28;20073;-58
2020/12/04 15:41:04;;;;;;;10.80;3.40;;;21.30;59.50;;;;;;15631680;28;20487;-58
2020/12/04 15:48:35;;;;;;;8.80;3.13;;;21.30;59.30;;;;;;15631445;28;20037;-58
2020/12/04 15:56:05;;;;;;;13.73;3.57;;;21.20;59.10;;;;;;15631197;28;20423;-58
2020/12/04 16:03:36;;;;;;;9.93;3.28;;;21.20;59.00;;;;;;15630887;28;20523;-58
2020/12/04 16:11:06;;;;;;;12.57;3.92;;;21.20;59.10;;;;;;15613136;28;20499;-58
2020/12/04 16:18:37;;;;;;;11.83;4.00;;;21.20;59.00;;;;;;15629726;28;20037;-58
2020/12/04 16:26:07;;;;;;;11.73;2.47;;;21.20;59.00;;;;;;15629700;28;20552;-58
2020/12/04 16:33:38;;;;;;;11.70;3.43;;;21.20;59.70;;;;;;15611156;28;20472;-58
2020/12/04 16:41:09;;;;;;;12.97;3.60;;;21.20;59.90;;;;;;15628986;28;20456;-58
2020/12/04 16:48:39;;;;;;;10.57;3.03;;;21.20;59.90;;;;;;15629520;28;20033;-58
2020/12/04 16:56:17;;;;;;;9.37;3.30;;;21.20;59.50;;;;;;15627583;28;20034;-58
2020/12/04 17:03:48;;;;;;;9.05;2.97;;;21.30;59.00;;;;;;15627354;28;20117;-58
2020/12/04 17:11:18;;;;;;;9.73;3.43;;;21.30;59.00;;;;;;15630428;28;20037;-58
2020/12/04 17:18:49;;;;;;;7.95;3.00;;;21.30;59.00;;;;;;15643690;28;20439;-58
2020/12/04 17:26:19;;;;;;;6.60;2.33;;;21.30;59.00;;;;;;15631196;28;20541;-58
2020/12/04 17:33:50;;;;;;;6.32;2.42;;;21.30;59.00;;;;;;15640438;28;20486;-58
2020/12/04 17:41:21;;;;;;;7.03;3.03;;;21.30;59.30;;;;;;15636316;28;20037;-60
2020/12/04 17:48:52;;;;;;;7.55;2.90;;;21.30;58.90;;;;;;15626544;28;20036;-60
2020/12/04 17:56:22;;;;;;;7.27;2.93;;;21.30;58.90;;;;;;15624684;28;20036;-60
2020/12/04 18:03:53;;;;;;;8.47;2.77;;;21.30;59.00;;;;;;15623883;28;20041;-60
2020/12/04 18:11:24;;;;;;;10.50;3.13;;;21.30;58.90;;;;;;15623614;28;20510;-60
2020/12/04 18:18:56;;;;;;;6.70;2.90;;;21.30;58.70;;;;;;15623530;28;20116;-60
2020/12/04 18:26:26;;;;;;;10.20;3.83;;;21.30;58.50;;;;;;15633008;28;20114;-58
2020/12/04 18:33:57;;;;;;;11.65;5.63;;;21.40;60.40;;;;;;15637073;28;20079;-60
2020/12/04 18:41:27;;;;;;;15.27;4.03;;;21.30;59.20;;;;;;15635128;28;20025;-58
2020/12/04 18:48:58;;;;;;;10.43;3.77;;;21.30;59.10;;;;;;15634982;28;20029;-58
2020/12/04 18:56:30;;;;;;;8.53;4.13;;;21.30;59.20;;;;;;15634166;28;20455;-59
2020/12/04 19:04:00;;;;;;;7.75;4.18;;;21.30;59.30;;;;;;15634236;28;20474;-60
2020/12/04 19:11:31;;;;;;;9.33;4.13;;;21.30;59.60;;;;;;15651469;28;20029;-59
2020/12/04 19:19:01;;;;;;;10.60;3.70;;;21.20;59.50;;;;;;15649586;28;20384;-59
2020/12/04 19:26:32;;;;;;;10.07;3.37;;;21.20;60.00;;;;;;15615266;28;20456;-58
2020/12/04 19:34:02;;;;;;;17.15;3.50;;;21.20;60.50;;;;;;15631885;28;20459;-57
2020/12/04 19:41:35;;;;;;;8.00;3.33;;;21.20;60.50;;;;;;15616615;28;20037;-58
2020/12/04 19:49:06;;;;;;;7.40;3.42;;;21.20;59.90;;;;;;15635328;28;20480;-58
2020/12/04 19:56:36;;;;;;;8.07;3.50;;;21.30;59.50;;;;;;15634137;28;20026;-58
2020/12/04 20:04:07;;;;;;;12.03;3.67;;;21.30;59.30;;;;;;15632838;28;20076;-62
2020/12/04 20:11:37;;;;;;;11.47;3.40;;;21.20;60.00;;;;;;15631302;28;20036;-62
2020/12/04 20:19:08;;;;;;;7.00;3.72;;;21.30;59.50;;;;;;15613740;28;20025;-62
2020/12/04 20:26:39;;;;;;;15.60;3.70;;;21.20;59.20;;;;;;15629924;28;20498;-59
2020/12/04 20:34:09;;;;;;;7.78;3.35;;;21.20;59.30;;;;;;15629902;28;20456;-59
2020/12/04 20:41:43;;;;;;;6.40;3.00;;;21.20;59.20;;;;;;15628736;28;20025;-59
2020/12/04 20:49:13;;;;;;;8.55;2.80;;;21.10;59.20;;;;;;15627199;28;20029;-59
2020/12/04 20:56:44;;;;;;;6.63;2.83;;;21.10;60.10;;;;;;15627709;28;20061;-58
2020/12/04 21:04:14;;;;;;;7.23;3.33;;;21.10;60.50;;;;;;15627940;28;20116;-58
2020/12/04 21:11:45;;;;;;;7.05;3.60;;;21.10;60.00;;;;;;15627759;28;20028;-58
2020/12/04 21:19:16;;;;;;;9.07;3.92;;;21.00;59.60;;;;;;15626292;28;20100;-58
2020/12/04 21:26:46;;;;;;;8.40;3.80;;;21.00;59.40;;;;;;15625951;28;20049;-59
2020/12/04 21:34:17;;;;;;;5.68;3.58;;;21.00;59.50;;;;;;15625929;28;20029;-61
2020/12/04 21:41:47;;;;;;;6.10;3.30;;;21.00;59.50;;;;;;15624746;28;20484;-61
2020/12/04 21:49:18;;;;;;;4.72;2.83;;;21.00;59.50;;;;;;15625202;28;20087;-61
2020/12/04 21:56:53;;;;;;;5.70;3.20;;;21.00;59.40;;;;;;15623720;28;20553;-61
2020/12/04 22:04:24;;;;;;;5.80;3.80;;;21.00;59.30;;;;;;15639494;22;20041;-64
2020/12/04 22:11:55;;;;;;;9.73;4.50;;;20.90;58.70;;;;;;15624685;28;20068;-63
2020/12/04 22:19:26;;;;;;;9.43;5.50;;;20.80;59.20;;;;;;15622940;28;20452;-64
2020/12/04 22:26:57;;;;;;;6.90;4.40;;;20.80;58.80;;;;;;15623529;28;20025;-64
2020/12/04 22:34:28;;;;;;;7.40;4.18;;;20.80;58.60;;;;;;15622601;28;20021;-64
2020/12/04 22:41:58;;;;;;;7.65;4.13;;;20.80;58.70;;;;;;15622420;28;20029;-64
2020/12/04 22:49:29;;;;;;;7.82;4.20;;;20.70;58.70;;;;;;15622593;28;20088;-65
2020/12/04 22:57:00;;;;;;;9.88;4.68;;;20.70;58.80;;;;;;15622075;28;20426;-65
2020/12/04 23:04:30;;;;;;;7.57;4.22;;;20.70;58.80;;;;;;15622073;28;20411;-65
2020/12/04 23:12:00;;;;;;;6.80;4.30;;;20.70;58.90;;;;;;15627351;28;20037;-64
2020/12/04 23:19:31;;;;;;;7.33;3.83;;;20.70;59.00;;;;;;15633675;28;20025;-64
2020/12/04 23:27:01;;;;;;;6.10;3.27;;;20.60;59.70;;;;;;15632886;28;20036;-63
2020/12/04 23:34:32;;;;;;;6.07;3.17;;;20.70;60.10;;;;;;15634010;28;20022;-63
2020/12/04 23:42:03;;;;;;;5.73;3.60;;;20.60;60.50;;;;;;15616838;28;20086;-63
2020/12/04 23:49:33;;;;;;;8.17;3.40;;;20.70;60.60;;;;;;15632080;28;20052;-64
2020/12/04 23:57:04;;;;;;;6.38;3.47;;;20.70;60.70;;;;;;15630502;28;20795;-64
